sensor_id;sensor_type;location;lat;lon;timestamp;P1;durP1;ratioP1;P2;durP2;ratioP2
26574;SDS011;67165;50.256;10.978;2023-12-20T00:00:25;14.10;;;9.02;;
26574;SDS011;67165;50.256;10.978;2023-12-20T00:02:50;13.20;;;9.60;;
26574;SDS011;67165;50.256;10.978;2023-12-20T00:05:16;13.75;;;9.73;;
26574;SDS011;67165;50.256;10.978;2023-12-20T00:07:42;14.27;;;9.65;;
26574;SDS011;67165;50.256;10.978;2023-12-20T00:10:08;12.60;;;9.23;;
26574;SDS011;67165;50.256;10.978;2023-12-20T00:12:34;15.32;;;9.30;;
26574;SDS011;67165;50.256;10.978;2023-12-20T00:15:00;15.25;;;9.82;;
26574;SDS011;67165;50.256;10.978;2023-12-20T00:17:25;13.65;;;9.05;;
26574;SDS011;67165;50.256;10.978;2023-12-20T00:19:51;16.13;;;9.55;;
26574;SDS011;67165;50.256;10.978;2023-12-20T00:22:17;12.85;;;9.00;;
26574;SDS011;67165;50.256;10.978;2023-12-20T00:24:42;14.32;;;9.07;;
26574;SDS011;67165;50.256;10.978;2023-12-20T00:27:08;13.65;;;9.27;;
26574;SDS011;67165;50.256;10.978;2023-12-20T00:29:33;13.77;;;9.27;;
26574;SDS011;67165;50.256;10.978;2023-12-20T00:31:59;16.38;;;9.38;;
26574;SDS011;67165;50.256;10.978;2023-12-20T00:34:25;12.88;;;8.95;;
26574;SDS011;67165;50.256;10.978;2023-12-20T00:36:50;12.82;;;8.93;;
26574;SDS011;67165;50.256;10.978;2023-12-20T00:39:16;13.43;;;8.82;;
26574;SDS011;67165;50.256;10.978;2023-12-20T00:41:42;11.45;;;8.43;;
26574;SDS011;67165;50.256;10.978;2023-12-20T00:44:07;16.17;;;9.02;;
26574;SDS011;67165;50.256;10.978;2023-12-20T00:46:33;12.70;;;9.57;;
26574;SDS011;67165;50.256;10.978;2023-12-20T00:48:58;11.00;;;7.85;;
26574;SDS011;67165;50.256;10.978;2023-12-20T00:51:24;11.05;;;8.18;;
26574;SDS011;67165;50.256;10.978;2023-12-20T00:53:50;12.27;;;9.10;;
26574;SDS011;67165;50.256;10.978;2023-12-20T00:56:19;13.98;;;8.68;;
26574;SDS011;67165;50.256;10.978;2023-12-20T00:58:45;11.23;;;7.72;;
26574;SDS011;67165;50.256;10.978;2023-12-20T01:01:11;10.90;;;7.72;;
26574;SDS011;67165;50.256;10.978;2023-12-20T01:03:36;11.90;;;7.93;;
26574;SDS011;67165;50.256;10.978;2023-12-20T01:06:02;11.10;;;7.90;;
26574;SDS011;67165;50.256;10.978;2023-12-20T01:08:29;12.70;;;7.28;;
26574;SDS011;67165;50.256;10.978;2023-12-20T01:10:55;11.30;;;7.20;;
26574;SDS011;67165;50.256;10.978;2023-12-20T01:13:20;9.18;;;6.50;;
26574;SDS011;67165;50.256;10.978;2023-12-20T01:15:46;10.85;;;7.30;;
26574;SDS011;67165;50.256;10.978;2023-12-20T01:18:13;9.90;;;7.00;;
26574;SDS011;67165;50.256;10.978;2023-12-20T01:20:39;9.00;;;6.47;;
26574;SDS011;67165;50.256;10.978;2023-12-20T01:23:05;8.60;;;6.13;;
26574;SDS011;67165;50.256;10.978;2023-12-20T01:25:30;10.05;;;6.00;;
26574;SDS011;67165;50.256;10.978;2023-12-20T01:27:56;8.27;;;6.40;;
26574;SDS011;67165;50.256;10.978;2023-12-20T01:30:21;9.35;;;6.28;;
26574;SDS011;67165;50.256;10.978;2023-12-20T01:32:47;8.55;;;5.88;;
26574;SDS011;67165;50.256;10.978;2023-12-20T01:35:13;7.85;;;5.70;;
26574;SDS011;67165;50.256;10.978;2023-12-20T01:37:38;7.43;;;5.93;;
26574;SDS011;67165;50.256;10.978;2023-12-20T01:40:04;7.72;;;5.50;;
26574;SDS011;67165;50.256;10.978;2023-12-20T01:42:30;6.75;;;5.40;;
26574;SDS011;67165;50.256;10.978;2023-12-20T01:44:56;6.68;;;5.38;;
26574;SDS011;67165;50.256;10.978;2023-12-20T01:47:22;7.70;;;5.75;;
26574;SDS011;67165;50.256;10.978;2023-12-20T01:49:48;7.28;;;5.25;;
26574;SDS011;67165;50.256;10.978;2023-12-20T01:52:14;5.97;;;4.75;;
26574;SDS011;67165;50.256;10.978;2023-12-20T01:54:40;6.57;;;4.63;;
26574;SDS011;67165;50.256;10.978;2023-12-20T01:57:07;6.25;;;4.72;;
26574;SDS011;67165;50.256;10.978;2023-12-20T01:59:34;6.50;;;4.97;;
26574;SDS011;67165;50.256;10.978;2023-12-20T02:02:00;6.15;;;4.88;;
26574;SDS011;67165;50.256;10.978;2023-12-20T02:04:26;7.32;;;5.10;;
26574;SDS011;67165;50.256;10.978;2023-12-20T02:06:52;5.65;;;4.03;;
26574;SDS011;67165;50.256;10.978;2023-12-20T02:09:18;4.63;;;3.90;;
26574;SDS011;67165;50.256;10.978;2023-12-20T02:11:44;5.35;;;3.75;;
26574;SDS011;67165;50.256;10.978;2023-12-20T02:14:09;4.20;;;3.40;;
26574;SDS011;67165;50.256;10.978;2023-12-20T02:16:35;5.05;;;3.75;;
26574;SDS011;67165;50.256;10.978;2023-12-20T02:19:02;4.95;;;3.80;;
26574;SDS011;67165;50.256;10.978;2023-12-20T02:21:32;4.75;;;3.58;;
26574;SDS011;67165;50.256;10.978;2023-12-20T02:23:58;5.32;;;3.40;;
26574;SDS011;67165;50.256;10.978;2023-12-20T02:26:24;5.07;;;3.33;;
26574;SDS011;67165;50.256;10.978;2023-12-20T02:28:50;4.97;;;3.17;;
26574;SDS011;67165;50.256;10.978;2023-12-20T02:31:15;3.33;;;2.90;;
26574;SDS011;67165;50.256;10.978;2023-12-20T02:33:41;4.15;;;2.88;;
26574;SDS011;67165;50.256;10.978;2023-12-20T02:36:07;3.45;;;2.67;;
26574;SDS011;67165;50.256;10.978;2023-12-20T02:38:33;3.38;;;2.80;;
26574;SDS011;67165;50.256;10.978;2023-12-20T02:40:59;3.40;;;2.45;;
26574;SDS011;67165;50.256;10.978;2023-12-20T02:43:24;3.78;;;2.58;;
26574;SDS011;67165;50.256;10.978;2023-12-20T02:45:50;3.65;;;2.33;;
26574;SDS011;67165;50.256;10.978;2023-12-20T02:48:16;2.30;;;2.00;;
26574;SDS011;67165;50.256;10.978;2023-12-20T02:50:41;3.03;;;2.20;;
26574;SDS011;67165;50.256;10.978;2023-12-20T02:53:07;2.70;;;2.22;;
26574;SDS011;67165;50.256;10.978;2023-12-20T02:55:32;3.65;;;2.28;;
26574;SDS011;67165;50.256;10.978;2023-12-20T02:57:58;3.85;;;2.40;;
26574;SDS011;67165;50.256;10.978;2023-12-20T03:00:24;2.63;;;1.70;;
26574;SDS011;67165;50.256;10.978;2023-12-20T03:02:49;1.98;;;1.77;;
26574;SDS011;67165;50.256;10.978;2023-12-20T03:05:15;3.05;;;1.73;;
26574;SDS011;67165;50.256;10.978;2023-12-20T03:07:40;2.63;;;1.95;;
26574;SDS011;67165;50.256;10.978;2023-12-20T03:10:06;1.90;;;1.60;;
26574;SDS011;67165;50.256;10.978;2023-12-20T03:12:33;3.10;;;1.70;;
26574;SDS011;67165;50.256;10.978;2023-12-20T03:14:58;2.42;;;1.92;;
26574;SDS011;67165;50.256;10.978;2023-12-20T03:17:24;2.63;;;2.00;;
26574;SDS011;67165;50.256;10.978;2023-12-20T03:19:50;3.42;;;2.10;;
26574;SDS011;67165;50.256;10.978;2023-12-20T03:22:15;2.22;;;2.03;;
26574;SDS011;67165;50.256;10.978;2023-12-20T03:24:41;3.10;;;2.05;;
26574;SDS011;67165;50.256;10.978;2023-12-20T03:27:06;2.20;;;1.73;;
26574;SDS011;67165;50.256;10.978;2023-12-20T03:29:32;2.53;;;1.80;;
26574;SDS011;67165;50.256;10.978;2023-12-20T03:31:57;1.98;;;1.70;;
26574;SDS011;67165;50.256;10.978;2023-12-20T03:34:23;1.90;;;1.60;;
26574;SDS011;67165;50.256;10.978;2023-12-20T03:36:49;2.25;;;1.58;;
26574;SDS011;67165;50.256;10.978;2023-12-20T03:39:14;2.22;;;1.90;;
26574;SDS011;67165;50.256;10.978;2023-12-20T03:41:40;1.98;;;1.80;;
26574;SDS011;67165;50.256;10.978;2023-12-20T03:44:06;2.17;;;1.95;;
26574;SDS011;67165;50.256;10.978;2023-12-20T03:46:31;2.90;;;1.88;;
26574;SDS011;67165;50.256;10.978;2023-12-20T03:48:57;3.75;;;1.80;;
26574;SDS011;67165;50.256;10.978;2023-12-20T03:51:22;2.60;;;2.10;;
26574;SDS011;67165;50.256;10.978;2023-12-20T03:53:48;2.78;;;2.47;;
26574;SDS011;67165;50.256;10.978;2023-12-20T03:56:13;2.35;;;2.00;;
26574;SDS011;67165;50.256;10.978;2023-12-20T03:58:39;2.78;;;2.08;;
26574;SDS011;67165;50.256;10.978;2023-12-20T04:01:09;3.00;;;2.20;;
26574;SDS011;67165;50.256;10.978;2023-12-20T04:03:36;3.25;;;2.47;;
26574;SDS011;67165;50.256;10.978;2023-12-20T04:06:03;2.75;;;2.47;;
26574;SDS011;67165;50.256;10.978;2023-12-20T04:08:29;4.60;;;2.70;;
26574;SDS011;67165;50.256;10.978;2023-12-20T04:10:54;3.95;;;3.00;;
26574;SDS011;67165;50.256;10.978;2023-12-20T04:13:20;4.50;;;3.05;;
26574;SDS011;67165;50.256;10.978;2023-12-20T04:15:45;2.55;;;2.25;;
26574;SDS011;67165;50.256;10.978;2023-12-20T04:18:11;2.13;;;1.92;;
26574;SDS011;67165;50.256;10.978;2023-12-20T04:20:37;2.80;;;2.08;;
26574;SDS011;67165;50.256;10.978;2023-12-20T04:23:03;2.30;;;2.10;;
26574;SDS011;67165;50.256;10.978;2023-12-20T04:25:28;2.50;;;2.00;;
26574;SDS011;67165;50.256;10.978;2023-12-20T04:27:54;2.20;;;2.00;;
26574;SDS011;67165;50.256;10.978;2023-12-20T04:30:19;1.80;;;1.70;;
26574;SDS011;67165;50.256;10.978;2023-12-20T04:32:45;2.00;;;1.67;;
26574;SDS011;67165;50.256;10.978;2023-12-20T04:35:10;2.17;;;1.70;;
26574;SDS011;67165;50.256;10.978;2023-12-20T04:37:36;2.17;;;1.98;;
26574;SDS011;67165;50.256;10.978;2023-12-20T04:40:02;2.28;;;2.08;;
26574;SDS011;67165;50.256;10.978;2023-12-20T04:42:28;2.40;;;2.03;;
26574;SDS011;67165;50.256;10.978;2023-12-20T04:44:53;3.00;;;2.60;;
26574;SDS011;67165;50.256;10.978;2023-12-20T04:47:19;2.30;;;2.10;;
26574;SDS011;67165;50.256;10.978;2023-12-20T04:49:47;3.10;;;2.80;;
26574;SDS011;67165;50.256;10.978;2023-12-20T04:52:13;3.42;;;2.30;;
26574;SDS011;67165;50.256;10.978;2023-12-20T04:54:39;8.85;;;6.43;;
26574;SDS011;67165;50.256;10.978;2023-12-20T04:57:05;4.50;;;3.67;;
26574;SDS011;67165;50.256;10.978;2023-12-20T04:59:31;4.18;;;3.30;;
26574;SDS011;67165;50.256;10.978;2023-12-20T05:01:56;3.50;;;2.75;;
26574;SDS011;67165;50.256;10.978;2023-12-20T05:04:22;3.10;;;2.78;;
26574;SDS011;67165;50.256;10.978;2023-12-20T05:06:48;3.85;;;2.80;;
26574;SDS011;67165;50.256;10.978;2023-12-20T05:09:15;3.47;;;3.17;;
26574;SDS011;67165;50.256;10.978;2023-12-20T05:11:40;2.97;;;2.67;;
26574;SDS011;67165;50.256;10.978;2023-12-20T05:14:06;4.10;;;2.90;;
26574;SDS011;67165;50.256;10.978;2023-12-20T05:16:32;3.90;;;3.25;;
26574;SDS011;67165;50.256;10.978;2023-12-20T05:18:57;4.30;;;3.38;;
26574;SDS011;67165;50.256;10.978;2023-12-20T05:21:25;3.90;;;3.50;;
26574;SDS011;67165;50.256;10.978;2023-12-20T05:23:51;4.10;;;3.60;;
26574;SDS011;67165;50.256;10.978;2023-12-20T05:26:17;4.43;;;4.03;;
26574;SDS011;67165;50.256;10.978;2023-12-20T05:28:42;5.40;;;4.07;;
26574;SDS011;67165;50.256;10.978;2023-12-20T05:31:08;4.45;;;3.92;;
26574;SDS011;67165;50.256;10.978;2023-12-20T05:33:34;4.60;;;3.70;;
26574;SDS011;67165;50.256;10.978;2023-12-20T05:36:00;5.22;;;4.20;;
26574;SDS011;67165;50.256;10.978;2023-12-20T05:38:25;5.78;;;4.45;;
26574;SDS011;67165;50.256;10.978;2023-12-20T05:40:51;4.90;;;4.28;;
26574;SDS011;67165;50.256;10.978;2023-12-20T05:43:17;6.10;;;5.00;;
26574;SDS011;67165;50.256;10.978;2023-12-20T05:45:44;4.80;;;4.32;;
26574;SDS011;67165;50.256;10.978;2023-12-20T05:48:09;6.22;;;5.10;;
26574;SDS011;67165;50.256;10.978;2023-12-20T05:50:35;5.53;;;4.90;;
26574;SDS011;67165;50.256;10.978;2023-12-20T05:53:01;5.82;;;5.00;;
26574;SDS011;67165;50.256;10.978;2023-12-20T05:55:27;5.90;;;5.30;;
26574;SDS011;67165;50.256;10.978;2023-12-20T05:57:53;5.40;;;4.88;;
26574;SDS011;67165;50.256;10.978;2023-12-20T06:00:18;5.55;;;4.80;;
26574;SDS011;67165;50.256;10.978;2023-12-20T06:02:44;5.45;;;4.32;;
26574;SDS011;67165;50.256;10.978;2023-12-20T06:05:10;5.05;;;4.15;;
26574;SDS011;67165;50.256;10.978;2023-12-20T06:07:35;4.60;;;4.10;;
26574;SDS011;67165;50.256;10.978;2023-12-20T06:10:01;5.72;;;4.28;;
26574;SDS011;67165;50.256;10.978;2023-12-20T06:12:27;5.03;;;4.53;;
26574;SDS011;67165;50.256;10.978;2023-12-20T06:14:53;5.40;;;4.53;;
26574;SDS011;67165;50.256;10.978;2023-12-20T06:17:19;5.40;;;4.30;;
26574;SDS011;67165;50.256;10.978;2023-12-20T06:19:45;4.20;;;3.80;;
26574;SDS011;67165;50.256;10.978;2023-12-20T06:22:13;5.57;;;4.20;;
26574;SDS011;67165;50.256;10.978;2023-12-20T06:24:39;4.57;;;3.90;;
26574;SDS011;67165;50.256;10.978;2023-12-20T06:27:04;5.50;;;4.60;;
26574;SDS011;67165;50.256;10.978;2023-12-20T06:29:30;4.90;;;4.40;;
26574;SDS011;67165;50.256;10.978;2023-12-20T06:31:56;4.97;;;4.25;;
26574;SDS011;67165;50.256;10.978;2023-12-20T06:34:21;6.10;;;5.32;;
26574;SDS011;67165;50.256;10.978;2023-12-20T06:36:47;5.43;;;4.90;;
26574;SDS011;67165;50.256;10.978;2023-12-20T06:39:13;5.80;;;4.70;;
26574;SDS011;67165;50.256;10.978;2023-12-20T06:41:39;5.38;;;4.20;;
26574;SDS011;67165;50.256;10.978;2023-12-20T06:44:05;7.60;;;4.32;;
26574;SDS011;67165;50.256;10.978;2023-12-20T06:46:31;4.68;;;4.28;;
26574;SDS011;67165;50.256;10.978;2023-12-20T06:48:57;7.28;;;4.72;;
26574;SDS011;67165;50.256;10.978;2023-12-20T06:51:22;6.72;;;5.15;;
26574;SDS011;67165;50.256;10.978;2023-12-20T06:53:50;5.18;;;4.60;;
26574;SDS011;67165;50.256;10.978;2023-12-20T06:56:17;8.70;;;5.40;;
26574;SDS011;67165;50.256;10.978;2023-12-20T06:58:42;7.13;;;5.35;;
26574;SDS011;67165;50.256;10.978;2023-12-20T07:01:12;6.43;;;5.18;;
26574;SDS011;67165;50.256;10.978;2023-12-20T07:03:38;7.00;;;5.10;;
26574;SDS011;67165;50.256;10.978;2023-12-20T07:06:04;5.88;;;4.88;;
26574;SDS011;67165;50.256;10.978;2023-12-20T07:08:30;12.07;;;6.30;;
26574;SDS011;67165;50.256;10.978;2023-12-20T07:10:55;10.32;;;6.25;;
26574;SDS011;67165;50.256;10.978;2023-12-20T07:13:21;10.13;;;6.82;;
26574;SDS011;67165;50.256;10.978;2023-12-20T07:15:47;10.27;;;6.55;;
26574;SDS011;67165;50.256;10.978;2023-12-20T07:18:13;12.80;;;6.90;;
26574;SDS011;67165;50.256;10.978;2023-12-20T07:20:39;11.77;;;6.63;;
26574;SDS011;67165;50.256;10.978;2023-12-20T07:23:04;11.20;;;6.10;;
26574;SDS011;67165;50.256;10.978;2023-12-20T07:25:30;10.18;;;6.07;;
26574;SDS011;67165;50.256;10.978;2023-12-20T07:27:57;8.98;;;5.90;;
26574;SDS011;67165;50.256;10.978;2023-12-20T07:30:23;10.20;;;6.07;;
26574;SDS011;67165;50.256;10.978;2023-12-20T07:32:49;10.63;;;6.05;;
26574;SDS011;67165;50.256;10.978;2023-12-20T07:35:15;12.35;;;6.43;;
26574;SDS011;67165;50.256;10.978;2023-12-20T07:37:41;11.80;;;6.18;;
26574;SDS011;67165;50.256;10.978;2023-12-20T07:40:07;11.20;;;6.50;;
26574;SDS011;67165;50.256;10.978;2023-12-20T07:42:33;14.60;;;6.57;;
26574;SDS011;67165;50.256;10.978;2023-12-20T07:44:59;8.85;;;5.80;;
26574;SDS011;67165;50.256;10.978;2023-12-20T07:47:24;15.50;;;6.85;;
26574;SDS011;67165;50.256;10.978;2023-12-20T07:49:50;7.57;;;5.90;;
26574;SDS011;67165;50.256;10.978;2023-12-20T07:52:17;10.95;;;6.20;;
26574;SDS011;67165;50.256;10.978;2023-12-20T07:54:43;10.82;;;5.97;;
26574;SDS011;67165;50.256;10.978;2023-12-20T07:57:10;11.27;;;6.25;;
26574;SDS011;67165;50.256;10.978;2023-12-20T07:59:35;10.10;;;6.57;;
26574;SDS011;67165;50.256;10.978;2023-12-20T08:02:01;12.73;;;6.63;;
26574;SDS011;67165;50.256;10.978;2023-12-20T08:04:27;11.82;;;6.57;;
26574;SDS011;67165;50.256;10.978;2023-12-20T08:06:52;11.32;;;6.50;;
26574;SDS011;67165;50.256;10.978;2023-12-20T08:09:18;11.45;;;6.78;;
26574;SDS011;67165;50.256;10.978;2023-12-20T08:11:47;12.55;;;6.47;;
26574;SDS011;67165;50.256;10.978;2023-12-20T08:14:14;10.48;;;6.78;;
26574;SDS011;67165;50.256;10.978;2023-12-20T08:16:40;11.52;;;6.82;;
26574;SDS011;67165;50.256;10.978;2023-12-20T08:19:06;11.93;;;6.97;;
26574;SDS011;67165;50.256;10.978;2023-12-20T08:21:31;10.13;;;6.63;;
26574;SDS011;67165;50.256;10.978;2023-12-20T08:23:57;11.00;;;7.20;;
26574;SDS011;67165;50.256;10.978;2023-12-20T08:26:22;12.80;;;7.32;;
26574;SDS011;67165;50.256;10.978;2023-12-20T08:28:49;13.05;;;7.65;;
26574;SDS011;67165;50.256;10.978;2023-12-20T08:31:16;10.90;;;7.25;;
26574;SDS011;67165;50.256;10.978;2023-12-20T08:33:43;13.88;;;7.38;;
26574;SDS011;67165;50.256;10.978;2023-12-20T08:36:09;12.18;;;7.93;;
26574;SDS011;67165;50.256;10.978;2023-12-20T08:38:35;13.90;;;7.63;;
26574;SDS011;67165;50.256;10.978;2023-12-20T08:41:01;19.02;;;9.65;;
26574;SDS011;67165;50.256;10.978;2023-12-20T08:43:28;13.68;;;7.82;;
26574;SDS011;67165;50.256;10.978;2023-12-20T08:45:54;16.50;;;8.60;;
26574;SDS011;67165;50.256;10.978;2023-12-20T08:48:19;12.15;;;7.65;;
26574;SDS011;67165;50.256;10.978;2023-12-20T08:50:45;12.48;;;6.97;;
26574;SDS011;67165;50.256;10.978;2023-12-20T08:53:12;13.43;;;7.35;;
26574;SDS011;67165;50.256;10.978;2023-12-20T08:55:37;10.32;;;6.63;;
26574;SDS011;67165;50.256;10.978;2023-12-20T08:58:03;10.55;;;6.55;;
26574;SDS011;67165;50.256;10.978;2023-12-20T09:00:31;9.73;;;7.22;;
26574;SDS011;67165;50.256;10.978;2023-12-20T09:02:57;8.38;;;6.65;;
26574;SDS011;67165;50.256;10.978;2023-12-20T09:05:22;10.23;;;6.93;;
26574;SDS011;67165;50.256;10.978;2023-12-20T09:07:48;10.23;;;7.05;;
26574;SDS011;67165;50.256;10.978;2023-12-20T09:10:14;11.90;;;6.85;;
26574;SDS011;67165;50.256;10.978;2023-12-20T09:12:39;12.98;;;7.40;;
26574;SDS011;67165;50.256;10.978;2023-12-20T09:15:06;11.23;;;7.18;;
26574;SDS011;67165;50.256;10.978;2023-12-20T09:17:32;12.10;;;6.68;;
26574;SDS011;67165;50.256;10.978;2023-12-20T09:19:57;11.95;;;7.05;;
26574;SDS011;67165;50.256;10.978;2023-12-20T09:22:24;9.63;;;6.93;;
26574;SDS011;67165;50.256;10.978;2023-12-20T09:24:50;14.95;;;7.13;;
26574;SDS011;67165;50.256;10.978;2023-12-20T09:27:16;8.98;;;6.10;;
26574;SDS011;67165;50.256;10.978;2023-12-20T09:29:42;15.13;;;6.45;;
26574;SDS011;67165;50.256;10.978;2023-12-20T09:32:08;10.60;;;5.55;;
26574;SDS011;67165;50.256;10.978;2023-12-20T09:34:33;12.55;;;5.93;;
26574;SDS011;67165;50.256;10.978;2023-12-20T09:36:59;9.93;;;5.93;;
26574;SDS011;67165;50.256;10.978;2023-12-20T09:39:24;14.50;;;5.22;;
26574;SDS011;67165;50.256;10.978;2023-12-20T09:42:03;13.02;;;4.97;;
26574;SDS011;67165;50.256;10.978;2023-12-20T09:44:30;9.57;;;4.90;;
26574;SDS011;67165;50.256;10.978;2023-12-20T09:46:56;10.25;;;4.32;;
26574;SDS011;67165;50.256;10.978;2023-12-20T09:49:23;11.98;;;4.38;;
26574;SDS011;67165;50.256;10.978;2023-12-20T09:51:50;11.75;;;4.35;;
26574;SDS011;67165;50.256;10.978;2023-12-20T09:54:17;8.90;;;4.10;;
26574;SDS011;67165;50.256;10.978;2023-12-20T09:56:43;11.40;;;4.28;;
26574;SDS011;67165;50.256;10.978;2023-12-20T09:59:09;8.40;;;3.83;;
26574;SDS011;67165;50.256;10.978;2023-12-20T10:01:35;11.30;;;3.95;;
26574;SDS011;67165;50.256;10.978;2023-12-20T10:04:06;9.88;;;3.38;;
26574;SDS011;67165;50.256;10.978;2023-12-20T10:06:43;8.50;;;3.65;;
26574;SDS011;67165;50.256;10.978;2023-12-20T10:09:09;14.98;;;4.03;;
26574;SDS011;67165;50.256;10.978;2023-12-20T10:11:36;12.38;;;3.83;;
26574;SDS011;67165;50.256;10.978;2023-12-20T10:14:03;13.32;;;3.97;;
26574;SDS011;67165;50.256;10.978;2023-12-20T10:16:29;12.73;;;4.30;;
26574;SDS011;67165;50.256;10.978;2023-12-20T10:18:56;10.48;;;3.95;;
26574;SDS011;67165;50.256;10.978;2023-12-20T10:21:22;13.02;;;4.15;;
26574;SDS011;67165;50.256;10.978;2023-12-20T10:23:49;7.95;;;3.00;;
26574;SDS011;67165;50.256;10.978;2023-12-20T10:28:53;15.25;;;3.90;;
26574;SDS011;67165;50.256;10.978;2023-12-20T10:31:27;13.05;;;3.60;;
26574;SDS011;67165;50.256;10.978;2023-12-20T10:33:57;8.68;;;3.30;;
26574;SDS011;67165;50.256;10.978;2023-12-20T10:36:27;11.02;;;3.47;;
26574;SDS011;67165;50.256;10.978;2023-12-20T10:38:55;10.63;;;3.17;;
26574;SDS011;67165;50.256;10.978;2023-12-20T10:41:27;7.72;;;3.22;;
26574;SDS011;67165;50.256;10.978;2023-12-20T10:44:00;15.02;;;3.40;;
26574;SDS011;67165;50.256;10.978;2023-12-20T10:46:27;10.18;;;3.22;;
26574;SDS011;67165;50.256;10.978;2023-12-20T10:48:57;8.55;;;3.35;;
26574;SDS011;67165;50.256;10.978;2023-12-20T10:51:23;8.10;;;3.38;;
26574;SDS011;67165;50.256;10.978;2023-12-20T10:53:51;11.13;;;3.15;;
26574;SDS011;67165;50.256;10.978;2023-12-20T10:56:18;11.85;;;3.83;;
26574;SDS011;67165;50.256;10.978;2023-12-20T10:58:48;9.70;;;3.50;;
26574;SDS011;67165;50.256;10.978;2023-12-20T11:01:14;11.02;;;3.30;;
26574;SDS011;67165;50.256;10.978;2023-12-20T11:03:51;13.07;;;3.33;;
26574;SDS011;67165;50.256;10.978;2023-12-20T11:17:09;8.82;;;3.10;;
26574;SDS011;67165;50.256;10.978;2023-12-20T11:19:38;7.85;;;2.85;;
26574;SDS011;67165;50.256;10.978;2023-12-20T11:22:32;11.40;;;2.90;;
26574;SDS011;67165;50.256;10.978;2023-12-20T11:25:06;10.88;;;2.78;;
26574;SDS011;67165;50.256;10.978;2023-12-20T11:27:33;12.30;;;2.95;;
26574;SDS011;67165;50.256;10.978;2023-12-20T11:29:59;6.75;;;2.60;;
26574;SDS011;67165;50.256;10.978;2023-12-20T11:32:31;7.70;;;2.70;;
26574;SDS011;67165;50.256;10.978;2023-12-20T11:35:00;10.63;;;2.72;;
26574;SDS011;67165;50.256;10.978;2023-12-20T11:37:30;7.57;;;2.95;;
26574;SDS011;67165;50.256;10.978;2023-12-20T11:40:15;9.10;;;2.55;;
26574;SDS011;67165;50.256;10.978;2023-12-20T11:42:42;9.73;;;2.78;;
26574;SDS011;67165;50.256;10.978;2023-12-20T11:45:16;13.05;;;3.33;;
26574;SDS011;67165;50.256;10.978;2023-12-20T11:47:48;11.35;;;2.67;;
26574;SDS011;67165;50.256;10.978;2023-12-20T11:50:15;10.05;;;2.97;;
26574;SDS011;67165;50.256;10.978;2023-12-20T11:52:41;6.20;;;2.63;;
26574;SDS011;67165;50.256;10.978;2023-12-20T11:55:07;9.75;;;2.90;;
26574;SDS011;67165;50.256;10.978;2023-12-20T11:57:33;9.38;;;2.80;;
26574;SDS011;67165;50.256;10.978;2023-12-20T11:59:59;9.55;;;2.53;;
26574;SDS011;67165;50.256;10.978;2023-12-20T12:02:25;11.60;;;2.15;;
26574;SDS011;67165;50.256;10.978;2023-12-20T12:04:50;5.75;;;2.13;;
26574;SDS011;67165;50.256;10.978;2023-12-20T12:07:16;7.65;;;2.10;;
26574;SDS011;67165;50.256;10.978;2023-12-20T12:09:42;5.25;;;2.28;;
26574;SDS011;67165;50.256;10.978;2023-12-20T12:12:08;9.40;;;2.67;;
26574;SDS011;67165;50.256;10.978;2023-12-20T12:14:34;6.97;;;2.42;;
26574;SDS011;67165;50.256;10.978;2023-12-20T12:17:02;11.98;;;2.55;;
26574;SDS011;67165;50.256;10.978;2023-12-20T12:19:29;12.07;;;2.72;;
26574;SDS011;67165;50.256;10.978;2023-12-20T12:22:09;10.45;;;2.70;;
26574;SDS011;67165;50.256;10.978;2023-12-20T12:24:45;9.25;;;2.85;;
26574;SDS011;67165;50.256;10.978;2023-12-20T12:27:12;10.75;;;2.63;;
26574;SDS011;67165;50.256;10.978;2023-12-20T12:29:38;18.23;;;3.08;;
26574;SDS011;67165;50.256;10.978;2023-12-20T12:32:05;10.13;;;2.30;;
26574;SDS011;67165;50.256;10.978;2023-12-20T12:34:32;8.90;;;2.38;;
26574;SDS011;67165;50.256;10.978;2023-12-20T12:37:01;6.72;;;2.13;;
26574;SDS011;67165;50.256;10.978;2023-12-20T12:39:29;12.25;;;2.55;;
26574;SDS011;67165;50.256;10.978;2023-12-20T12:41:55;12.27;;;2.40;;
26574;SDS011;67165;50.256;10.978;2023-12-20T12:44:22;10.73;;;2.63;;
26574;SDS011;67165;50.256;10.978;2023-12-20T12:46:50;10.77;;;2.20;;
26574;SDS011;67165;50.256;10.978;2023-12-20T12:49:16;11.50;;;2.80;;
26574;SDS011;67165;50.256;10.978;2023-12-20T12:51:42;11.18;;;2.55;;
26574;SDS011;67165;50.256;10.978;2023-12-20T12:54:08;10.68;;;2.97;;
26574;SDS011;67165;50.256;10.978;2023-12-20T12:56:35;10.82;;;2.83;;
26574;SDS011;67165;50.256;10.978;2023-12-20T12:59:01;11.18;;;2.20;;
26574;SDS011;67165;50.256;10.978;2023-12-20T13:01:27;8.93;;;2.28;;
26574;SDS011;67165;50.256;10.978;2023-12-20T13:03:53;10.35;;;2.10;;
26574;SDS011;67165;50.256;10.978;2023-12-20T13:06:19;13.10;;;2.80;;
26574;SDS011;67165;50.256;10.978;2023-12-20T13:08:45;10.65;;;2.70;;
26574;SDS011;67165;50.256;10.978;2023-12-20T13:11:10;9.82;;;2.60;;
26574;SDS011;67165;50.256;10.978;2023-12-20T13:13:36;11.00;;;2.63;;
26574;SDS011;67165;50.256;10.978;2023-12-20T13:16:02;11.13;;;2.38;;
26574;SDS011;67165;50.256;10.978;2023-12-20T13:18:27;9.07;;;2.63;;
26574;SDS011;67165;50.256;10.978;2023-12-20T13:20:53;8.05;;;2.85;;
26574;SDS011;67165;50.256;10.978;2023-12-20T13:23:19;11.48;;;3.10;;
26574;SDS011;67165;50.256;10.978;2023-12-20T13:25:44;9.63;;;3.00;;
26574;SDS011;67165;50.256;10.978;2023-12-20T13:28:13;13.98;;;2.72;;
26574;SDS011;67165;50.256;10.978;2023-12-20T13:30:39;10.85;;;2.58;;
26574;SDS011;67165;50.256;10.978;2023-12-20T13:33:05;15.25;;;2.80;;
26574;SDS011;67165;50.256;10.978;2023-12-20T13:35:31;10.55;;;2.53;;
26574;SDS011;67165;50.256;10.978;2023-12-20T13:37:58;9.07;;;2.78;;
26574;SDS011;67165;50.256;10.978;2023-12-20T13:40:24;8.93;;;2.20;;
26574;SDS011;67165;50.256;10.978;2023-12-20T13:42:50;11.75;;;2.83;;
26574;SDS011;67165;50.256;10.978;2023-12-20T13:45:15;9.80;;;3.33;;
26574;SDS011;67165;50.256;10.978;2023-12-20T13:47:41;11.45;;;2.97;;
26574;SDS011;67165;50.256;10.978;2023-12-20T13:50:07;16.25;;;3.05;;
26574;SDS011;67165;50.256;10.978;2023-12-20T13:52:33;12.25;;;2.42;;
26574;SDS011;67165;50.256;10.978;2023-12-20T13:54:58;8.80;;;3.10;;
26574;SDS011;67165;50.256;10.978;2023-12-20T13:57:24;11.50;;;3.35;;
26574;SDS011;67165;50.256;10.978;2023-12-20T13:59:49;13.00;;;3.20;;
26574;SDS011;67165;50.256;10.978;2023-12-20T14:02:15;9.52;;;2.70;;
26574;SDS011;67165;50.256;10.978;2023-12-20T14:04:43;12.73;;;3.00;;
26574;SDS011;67165;50.256;10.978;2023-12-20T14:07:09;10.32;;;3.00;;
26574;SDS011;67165;50.256;10.978;2023-12-20T14:09:35;11.50;;;3.22;;
26574;SDS011;67165;50.256;10.978;2023-12-20T14:12:01;16.08;;;3.90;;
26574;SDS011;67165;50.256;10.978;2023-12-20T14:14:26;10.90;;;3.92;;
26574;SDS011;67165;50.256;10.978;2023-12-20T14:16:52;10.57;;;3.72;;
26574;SDS011;67165;50.256;10.978;2023-12-20T14:19:18;12.43;;;3.13;;
26574;SDS011;67165;50.256;10.978;2023-12-20T14:21:43;10.68;;;3.53;;
26574;SDS011;67165;50.256;10.978;2023-12-20T14:24:11;11.38;;;3.22;;
26574;SDS011;67165;50.256;10.978;2023-12-20T14:26:40;9.02;;;3.20;;
26574;SDS011;67165;50.256;10.978;2023-12-20T14:29:06;16.42;;;3.40;;
26574;SDS011;67165;50.256;10.978;2023-12-20T14:31:32;11.48;;;3.08;;
26574;SDS011;67165;50.256;10.978;2023-12-20T14:33:58;8.13;;;2.72;;
26574;SDS011;67165;50.256;10.978;2023-12-20T14:36:25;11.50;;;2.70;;